Time;durP1;ratioP1;P1;durP2;ratioP2;P2;SDS_P1;SDS_P2;PMS_P1;PMS_P2;Temp;Humidity;BMP_temperature;BMP_pressure;BME280_temperature;BME280_humidity;BME280_pressure;Samples;Min_cycle;Max_cycle;Signal;HPM_P1;HPM_P2
2022/02/11 00:02:22;;;;;;;1.70;1.40;;;4.00;98.20;;;;;;4996759;28;20487;-73
2022/02/11 00:07:33;;;;;;;1.60;1.40;;;4.00;98.20;;;;;;5000968;28;20487;-73
2022/02/11 00:10:00;;;;;;;1.60;1.30;;;4.00;98.20;;;;;;5008830;28;20957;-73
2022/02/11 00:12:28;;;;;;;1.60;1.40;;;4.00;98.20;;;;;;5002847;28;20492;-73
2022/02/11 00:15:08;;;;;;;1.70;1.50;;;4.00;98.20;;;;;;5007138;28;21161;-73
2022/02/11 00:17:35;;;;;;;1.60;1.40;;;4.00;98.20;;;;;;4997992;28;20906;-73
2022/02/11 00:20:02;;;;;;;1.70;1.40;;;4.00;98.20;;;;;;4992100;28;20983;-73
2022/02/11 00:22:28;;;;;;;1.67;1.40;;;4.00;98.20;;;;;;5004655;28;20491;-73
2022/02/11 00:24:55;;;;;;;1.67;1.40;;;4.00;98.20;;;;;;5012474;28;20487;-73
2022/02/11 00:33:03;;;;;;;1.60;1.30;;;4.00;98.20;;;;;;5005650;28;20621;-73
2022/02/11 00:35:35;;;;;;;1.70;1.40;;;3.90;98.20;;;;;;4998497;28;20468;-73
2022/02/11 00:38:09;;;;;;;1.70;1.47;;;3.90;98.20;;;;;;4997289;28;20482;-73
2022/02/11 00:41:03;;;;;;;1.70;1.40;;;3.90;98.20;;;;;;4990953;28;20468;-73
2022/02/11 00:44:20;;;;;;;1.70;1.40;;;3.90;98.20;;;;;;4990841;28;20914;-73
2022/02/11 01:03:23;;;;;;;1.70;1.60;;;3.50;98.20;;;;;;4983816;28;20524;-73
2022/02/11 01:05:50;;;;;;;1.70;1.50;;;3.40;98.20;;;;;;4981548;28;20464;-73
2022/02/11 01:08:16;;;;;;;1.70;1.50;;;3.40;98.20;;;;;;5015183;28;20488;-73
2022/02/11 01:10:44;;;;;;;1.70;1.40;;;3.40;98.20;;;;;;5002084;28;20460;-74
2022/02/11 01:13:12;;;;;;;1.70;1.50;;;3.30;98.20;;;;;;4982423;28;20493;-73
2022/02/11 01:15:43;;;;;;;1.70;1.40;;;3.30;98.20;;;;;;4990327;28;20465;-73
2022/02/11 01:18:12;;;;;;;1.67;1.43;;;3.30;98.20;;;;;;4997568;28;20842;-73
2022/02/11 01:20:46;;;;;;;1.70;1.50;;;3.20;98.20;;;;;;4989108;28;20881;-73
2022/02/11 01:23:22;;;;;;;1.70;1.47;;;3.20;98.20;;;;;;4984325;28;20479;-73
2022/02/11 01:26:04;;;;;;;1.80;1.70;;;3.20;98.20;;;;;;4981080;28;20862;-73
2022/02/11 01:28:43;;;;;;;1.67;1.40;;;3.20;98.20;;;;;;5015343;28;20554;-73
2022/02/11 01:31:18;;;;;;;1.70;1.40;;;3.20;98.20;;;;;;4986432;28;21150;-73
2022/02/11 01:34:01;;;;;;;1.63;1.40;;;3.20;98.20;;;;;;5003809;28;20499;-73
2022/02/11 01:39:49;;;;;;;1.70;1.50;;;3.20;98.20;;;;;;4989345;28;20469;-73
2022/02/11 01:45:22;;;;;;;1.67;1.40;;;3.10;98.20;;;;;;4999213;28;20468;-73
2022/02/11 01:50:52;;;;;;;1.70;1.53;;;3.10;98.20;;;;;;5002753;28;20804;-73
2022/02/11 01:53:30;;;;;;;1.60;1.40;;;3.10;98.20;;;;;;4980396;28;20575;-74
2022/02/11 01:56:07;;;;;;;1.70;1.50;;;3.10;98.20;;;;;;4983694;28;20833;-73
2022/02/11 01:59:04;;;;;;;1.70;1.40;;;3.00;98.20;;;;;;5006947;28;20464;-73
2022/02/11 02:24:02;;;;;;;1.70;1.47;;;2.90;98.20;;;;;;5072552;27;20551;-71
2022/02/11 02:26:45;;;;;;;1.67;1.50;;;2.90;98.20;;;;;;5059859;28;20852;-72
2022/02/11 02:30:03;;;;;;;1.70;1.40;;;2.90;98.20;;;;;;5071712;28;20461;-72
2022/02/11 02:35:17;;;;;;;1.70;1.40;;;2.80;98.20;;;;;;5063918;28;20488;-71
2022/02/11 02:38:35;;;;;;;1.70;1.40;;;2.80;98.20;;;;;;5069425;28;20546;-71
2022/02/11 02:57:44;;;;;;;1.70;1.40;;;2.70;98.20;;;;;;5064232;28;20830;-71
2022/02/11 03:00:39;;;;;;;1.70;1.50;;;2.70;98.20;;;;;;5062776;28;20465;-72
2022/02/11 03:53:20;;;;;;;1.63;1.40;;;2.90;98.20;;;;;;5028853;28;20477;-71
2022/02/11 03:59:22;;;;;;;1.70;1.50;;;3.00;98.20;;;;;;4991900;28;20469;-71
2022/02/11 05:00:11;;;;;;;1.63;1.40;;;3.70;98.20;;;;;;5017326;28;20459;-73
2022/02/11 05:02:38;;;;;;;2.63;2.43;;;3.70;98.20;;;;;;5007974;28;20462;-73
2022/02/11 05:05:08;;;;;;;1.70;1.50;;;3.70;98.20;;;;;;5006346;28;20488;-74
2022/02/11 05:07:35;;;;;;;1.70;1.50;;;3.70;98.20;;;;;;5029056;28;20490;-73
2022/02/11 05:10:02;;;;;;;1.63;1.40;;;3.70;98.20;;;;;;5026106;28;20471;-73
2022/02/11 05:12:29;;;;;;;1.70;1.50;;;3.70;98.20;;;;;;5031409;28;20493;-73
2022/02/11 05:14:55;;;;;;;1.63;1.30;;;3.70;98.20;;;;;;5013766;28;20491;-74
2022/02/11 05:17:23;;;;;;;1.70;1.50;;;3.70;98.20;;;;;;5017729;28;20471;-73
2022/02/11 05:19:50;;;;;;;1.67;1.30;;;3.70;98.20;;;;;;5005605;28;20471;-74
2022/02/11 05:22:17;;;;;;;1.70;1.50;;;3.70;98.20;;;;;;5025199;28;20491;-74
2022/02/11 05:24:44;;;;;;;1.70;1.50;;;3.80;98.20;;;;;;5021904;28;20479;-75
2022/02/11 05:27:11;;;;;;;1.70;1.40;;;3.80;98.20;;;;;;5031939;28;20490;-73
2022/02/11 05:29:38;;;;;;;1.70;1.50;;;3.80;98.20;;;;;;5023116;28;20460;-74
2022/02/11 05:32:06;;;;;;;1.63;1.30;;;3.80;98.20;;;;;;5019721;28;20486;-74
2022/02/11 05:34:34;;;;;;;1.80;1.70;;;3.80;98.20;;;;;;5034710;28;20490;-74
2022/02/11 05:37:00;;;;;;;1.67;1.30;;;3.80;98.20;;;;;;5021701;28;20490;-74
2022/02/11 05:39:27;;;;;;;1.70;1.50;;;3.80;98.20;;;;;;5023127;28;20471;-74
2022/02/11 05:41:54;;;;;;;1.70;1.50;;;3.80;98.20;;;;;;5013323;28;20994;-74
2022/02/11 05:44:21;;;;;;;1.67;1.37;;;3.80;98.20;;;;;;5011702;28;20487;-73
2022/02/11 05:46:47;;;;;;;2.23;2.03;;;3.90;98.20;;;;;;5010312;28;20859;-74
2022/02/11 05:49:14;;;;;;;2.10;1.90;;;3.90;98.20;;;;;;5007331;28;20469;-74
2022/02/11 05:51:42;;;;;;;1.60;1.40;;;3.90;98.20;;;;;;4997651;28;20486;-74
2022/02/11 05:54:09;;;;;;;2.20;2.00;;;4.00;98.20;;;;;;5015514;28;20488;-73
2022/02/11 05:56:36;;;;;;;1.70;1.40;;;4.00;98.20;;;;;;4999959;28;20483;-74
2022/02/11 05:59:03;;;;;;;1.70;1.40;;;4.00;98.20;;;;;;5008919;28;20841;-74
2022/02/11 06:01:30;;;;;;;1.70;1.60;;;4.00;98.20;;;;;;4997558;28;20482;-73
2022/02/11 06:03:56;;;;;;;1.70;1.40;;;4.00;98.20;;;;;;5016264;28;20485;-74
2022/02/11 06:06:24;;;;;;;1.67;1.40;;;4.00;98.20;;;;;;5009965;28;20499;-74
2022/02/11 06:08:52;;;;;;;1.67;1.30;;;4.00;98.20;;;;;;4993290;28;20501;-74
2022/02/11 06:11:19;;;;;;;1.70;1.60;;;4.10;98.20;;;;;;4992501;28;20505;-73
2022/02/11 06:13:46;;;;;;;1.67;1.43;;;4.10;98.20;;;;;;5027470;28;20492;-74
2022/02/11 06:16:13;;;;;;;1.70;1.50;;;4.10;98.20;;;;;;5006200;28;20514;-74
2022/02/11 06:18:40;;;;;;;1.70;1.57;;;4.10;98.20;;;;;;5028753;28;20943;-73
2022/02/11 06:21:07;;;;;;;3.37;3.10;;;4.10;98.20;;;;;;5004284;28;20528;-74
2022/02/11 06:23:33;;;;;;;1.70;1.50;;;4.20;98.20;;;;;;5018187;28;20496;-74
2022/02/11 06:26:01;;;;;;;1.70;1.50;;;4.20;98.20;;;;;;4986775;28;20785;-74
2022/02/11 06:28:28;;;;;;;1.60;1.30;;;4.20;98.20;;;;;;5027808;28;20464;-73
2022/02/11 06:30:55;;;;;;;1.70;1.40;;;4.20;98.20;;;;;;4988710;28;20465;-74
2022/02/11 06:33:21;;;;;;;1.67;1.40;;;4.20;98.20;;;;;;5036342;28;20574;-73
2022/02/11 06:35:48;;;;;;;1.60;1.30;;;4.20;98.20;;;;;;4985988;28;20838;-74
2022/02/11 06:38:17;;;;;;;1.70;1.40;;;4.20;98.20;;;;;;5023057;28;21121;-74
2022/02/11 06:40:43;;;;;;;1.67;1.40;;;4.30;98.20;;;;;;4990404;28;20961;-73
2022/02/11 06:43:14;;;;;;;3.00;2.80;;;4.30;98.20;;;;;;5023330;28;20491;-74
2022/02/11 06:45:41;;;;;;;1.60;1.40;;;4.30;98.20;;;;;;5009460;28;20599;-74
2022/02/11 06:48:07;;;;;;;1.60;1.30;;;4.30;98.20;;;;;;5018599;28;20549;-75
2022/02/11 06:50:35;;;;;;;1.70;1.40;;;4.30;98.20;;;;;;4994945;28;20472;-74
2022/02/11 06:53:01;;;;;;;1.60;1.30;;;4.40;98.20;;;;;;5023623;28;20489;-74
2022/02/11 06:55:28;;;;;;;1.70;1.40;;;4.40;98.20;;;;;;5004168;23;20799;-78
2022/02/11 06:57:55;;;;;;;1.70;1.50;;;4.40;98.20;;;;;;4975180;28;20493;-76
2022/02/11 07:00:23;;;;;;;1.70;1.50;;;4.40;98.20;;;;;;4984590;28;20984;-78
2022/02/11 07:02:51;;;;;;;1.70;1.50;;;4.40;98.20;;;;;;4974662;28;20958;-77
2022/02/11 07:05:19;;;;;;;1.70;1.40;;;4.50;98.20;;;;;;4982360;28;20565;-76
2022/02/11 07:07:47;;;;;;;1.97;1.80;;;4.50;98.20;;;;;;4974588;28;20823;-76
2022/02/11 07:10:14;;;;;;;1.77;1.67;;;4.50;98.20;;;;;;4966416;28;20564;-76
2022/02/11 07:12:41;;;;;;;1.70;1.60;;;4.50;98.20;;;;;;4975798;28;20579;-76
2022/02/11 07:15:09;;;;;;;1.70;1.30;;;4.60;98.20;;;;;;4971739;28;20490;-79
2022/02/11 07:17:37;;;;;;;1.60;1.30;;;4.60;98.20;;;;;;4958872;28;20493;-74
2022/02/11 07:20:06;;;;;;;1.70;1.40;;;4.60;98.20;;;;;;4966394;28;20472;-79
2022/02/11 07:22:34;;;;;;;1.70;1.40;;;4.60;98.20;;;;;;4973057;28;20508;-80
2022/02/11 07:25:01;;;;;;;1.80;1.70;;;4.70;98.20;;;;;;4989095;28;20489;-78
2022/02/11 07:27:28;;;;;;;1.70;1.40;;;4.70;98.20;;;;;;4975366;28;20516;-78
2022/02/11 07:29:55;;;;;;;1.70;1.50;;;4.70;98.20;;;;;;4988565;28;20465;-77
2022/02/11 07:32:22;;;;;;;1.70;1.40;;;4.70;98.20;;;;;;4972427;28;20493;-77
2022/02/11 07:34:50;;;;;;;1.60;1.30;;;4.70;98.20;;;;;;4989977;28;20901;-77
2022/02/11 07:37:17;;;;;;;1.60;1.30;;;4.70;98.20;;;;;;4991072;28;20901;-77
2022/02/11 07:39:43;;;;;;;1.60;1.30;;;4.70;98.20;;;;;;4993474;28;20465;-80
2022/02/11 07:42:10;;;;;;;1.70;1.60;;;4.70;98.20;;;;;;4989723;28;21008;-77
2022/02/11 07:44:37;;;;;;;1.63;1.30;;;4.70;98.20;;;;;;4994886;28;20497;-79
2022/02/11 07:47:04;;;;;;;1.70;1.47;;;4.80;98.20;;;;;;4987909;28;20488;-77
2022/02/11 07:49:32;;;;;;;1.70;1.40;;;4.80;98.20;;;;;;4995043;28;20468;-76
2022/02/11 07:52:01;;;;;;;1.70;1.50;;;4.80;98.20;;;;;;4988669;28;20492;-75
2022/02/11 07:54:27;;;;;;;1.70;1.47;;;4.80;98.20;;;;;;4994979;28;20468;-75
2022/02/11 07:56:54;;;;;;;1.70;1.50;;;4.80;98.20;;;;;;4976044;28;20592;-75
2022/02/11 07:59:21;;;;;;;1.67;1.30;;;4.80;98.20;;;;;;4976339;28;20473;-80
2022/02/11 08:01:48;;;;;;;1.63;1.30;;;4.80;98.20;;;;;;4976709;28;20521;-76
2022/02/11 08:04:14;;;;;;;1.70;1.50;;;4.90;98.20;;;;;;4984158;28;20825;-76
2022/02/11 08:06:41;;;;;;;1.67;1.37;;;4.90;98.20;;;;;;4983894;28;20480;-76
2022/02/11 08:09:09;;;;;;;1.60;1.30;;;5.00;98.20;;;;;;4996920;28;20465;-78
2022/02/11 08:11:36;;;;;;;1.63;1.37;;;5.00;98.20;;;;;;4984172;28;20487;-79
2022/02/11 08:14:03;;;;;;;1.70;1.40;;;5.00;98.20;;;;;;4997872;28;20472;-76
2022/02/11 08:16:30;;;;;;;1.70;1.30;;;5.00;98.20;;;;;;4973830;28;20545;-77
2022/02/11 08:18:57;;;;;;;1.70;1.60;;;5.10;98.20;;;;;;4988306;28;20473;-76
2022/02/11 08:21:25;;;;;;;1.70;1.47;;;5.10;98.20;;;;;;4982625;28;20465;-75
2022/02/11 08:23:52;;;;;;;1.70;1.40;;;5.10;98.20;;;;;;4984889;28;20484;-76
2022/02/11 08:26:20;;;;;;;1.70;1.50;;;5.20;98.20;;;;;;4976810;28;20480;-77
2022/02/11 08:28:47;;;;;;;1.70;1.60;;;5.30;98.20;;;;;;4996658;28;20552;-76
2022/02/11 08:31:14;;;;;;;1.67;1.40;;;5.40;98.20;;;;;;4977711;28;20483;-77
2022/02/11 08:33:42;;;;;;;1.67;1.30;;;5.50;98.20;;;;;;5000193;28;20480;-77
2022/02/11 08:36:09;;;;;;;1.60;1.30;;;5.70;98.20;;;;;;4975330;28;20527;-79
2022/02/11 08:38:35;;;;;;;1.63;1.33;;;5.80;98.20;;;;;;4998507;28;20479;-77
2022/02/11 08:41:02;;;;;;;1.63;1.30;;;6.00;98.20;;;;;;4975297;28;20461;-77
2022/02/11 08:43:30;;;;;;;1.60;1.30;;;6.10;98.20;;;;;;4985681;28;20469;-77
2022/02/11 08:45:57;;;;;;;1.70;1.40;;;6.20;98.20;;;;;;4973707;28;20497;-78
2022/02/11 08:48:24;;;;;;;1.60;1.30;;;6.20;98.20;;;;;;4999342;28;20481;-78
2022/02/11 08:50:51;;;;;;;1.63;1.30;;;6.20;98.20;;;;;;4971618;28;20472;-77
2022/02/11 08:53:17;;;;;;;1.60;1.30;;;6.20;98.20;;;;;;5001172;28;20469;-77
2022/02/11 08:55:44;;;;;;;1.70;1.30;;;6.30;98.20;;;;;;4982306;28;20873;-79
2022/02/11 08:58:11;;;;;;;1.67;1.30;;;6.40;98.20;;;;;;4991897;28;20504;-79
2022/02/11 09:00:39;;;;;;;1.60;1.20;;;6.40;98.20;;;;;;4984342;28;20478;-78
2022/02/11 09:03:06;;;;;;;1.60;1.30;;;6.40;98.20;;;;;;4971086;28;20485;-77
2022/02/11 09:05:33;;;;;;;1.67;1.33;;;6.40;98.20;;;;;;4981210;28;20488;-78
2022/02/11 09:08:01;;;;;;;3.20;3.00;;;6.30;98.20;;;;;;4972247;28;20492;-78
2022/02/11 09:10:30;;;;;;;1.60;1.30;;;6.20;98.20;;;;;;4981311;28;20465;-78
2022/02/11 09:13:00;;;;;;;1.60;1.20;;;6.20;98.20;;;;;;4995821;28;20942;-78
2022/02/11 09:15:29;;;;;;;1.63;1.30;;;6.30;98.20;;;;;;4991441;28;20532;-79
2022/02/11 09:17:57;;;;;;;1.67;1.30;;;6.30;98.20;;;;;;4977324;28;20481;-78
2022/02/11 09:20:25;;;;;;;1.70;1.43;;;6.30;98.20;;;;;;4984899;28;20475;-78
2022/02/11 09:22:53;;;;;;;1.70;1.37;;;6.40;98.20;;;;;;4977291;28;20491;-78
2022/02/11 09:25:20;;;;;;;1.60;1.20;;;6.60;98.20;;;;;;4984354;28;20593;-78
2022/02/11 09:27:47;;;;;;;1.70;1.40;;;6.70;98.20;;;;;;4991553;28;20482;-78
2022/02/11 09:30:17;;;;;;;1.70;1.40;;;6.70;98.20;;;;;;4983701;28;20461;-78
2022/02/11 09:32:45;;;;;;;1.60;1.20;;;6.80;98.20;;;;;;4978478;28;20492;-77
2022/02/11 09:35:15;;;;;;;1.67;1.20;;;6.80;98.20;;;;;;4991292;28;20499;-77
2022/02/11 09:37:41;;;;;;;1.63;1.23;;;6.90;98.20;;;;;;4975360;28;20481;-78
2022/02/11 09:40:11;;;;;;;1.70;1.40;;;7.00;98.20;;;;;;4990470;28;21002;-78
2022/02/11 09:42:38;;;;;;;1.60;1.30;;;7.20;98.20;;;;;;4979507;28;20492;-78
2022/02/11 09:45:07;;;;;;;1.63;1.30;;;7.30;98.20;;;;;;4992133;28;20583;-78
2022/02/11 09:47:34;;;;;;;1.63;1.23;;;7.30;98.20;;;;;;4979818;28;20563;-78
2022/02/11 09:50:01;;;;;;;1.67;1.20;;;7.40;98.20;;;;;;4990963;28;20845;-78
2022/02/11 09:52:29;;;;;;;1.60;1.20;;;7.40;98.20;;;;;;4993848;28;20488;-77
2022/02/11 09:57:41;;;;;;;1.60;1.20;;;7.40;98.20;;;;;;4977071;28;20468;-77
2022/02/11 10:00:10;;;;;;;1.60;1.23;;;7.40;98.20;;;;;;4983723;28;21158;-79
2022/02/11 10:02:49;;;;;;;1.63;1.20;;;7.40;98.20;;;;;;4976464;28;21006;-76
2022/02/11 10:05:21;;;;;;;1.70;1.30;;;7.30;98.20;;;;;;4990217;28;20586;-76
2022/02/11 10:07:50;;;;;;;1.60;1.20;;;7.20;98.20;;;;;;4995597;28;20491;-78
2022/02/11 10:10:38;;;;;;;1.60;1.30;;;7.20;98.20;;;;;;4979721;28;20469;-77
2022/02/11 10:13:05;;;;;;;1.60;1.30;;;7.10;98.20;;;;;;4977908;28;20477;-77
2022/02/11 10:15:33;;;;;;;1.60;1.20;;;7.10;98.20;;;;;;4990950;28;20507;-77
2022/02/11 10:18:00;;;;;;;1.60;1.20;;;7.10;98.20;;;;;;4978184;28;20481;-79
2022/02/11 10:20:29;;;;;;;1.60;1.20;;;7.10;98.20;;;;;;4990319;28;20469;-76
2022/02/11 10:23:12;;;;;;;1.63;1.30;;;7.10;98.20;;;;;;4995003;28;21284;-77
2022/02/11 10:25:56;;;;;;;1.67;1.30;;;7.20;98.20;;;;;;4990914;28;20921;-78
2022/02/11 10:28:25;;;;;;;1.60;1.30;;;7.30;98.20;;;;;;4971807;28;20888;-76
2022/02/11 10:31:06;;;;;;;1.67;1.30;;;7.40;98.20;;;;;;4977950;28;20466;-75
2022/02/11 10:33:49;;;;;;;1.60;1.20;;;7.40;98.20;;;;;;4986103;28;20999;-75
2022/02/11 10:36:17;;;;;;;1.70;1.40;;;7.50;98.20;;;;;;4969968;28;20489;-77
2022/02/11 10:38:45;;;;;;;1.60;1.20;;;7.50;98.20;;;;;;4989547;28;20469;-78
2022/02/11 10:41:12;;;;;;;1.60;1.20;;;7.60;98.20;;;;;;4983052;28;20487;-77
2022/02/11 10:43:39;;;;;;;1.70;1.30;;;7.50;98.20;;;;;;5002951;28;20476;-74
2022/02/11 10:46:16;;;;;;;1.67;1.30;;;7.60;98.20;;;;;;4971710;28;20919;-75
2022/02/11 10:48:43;;;;;;;1.60;1.30;;;7.70;98.20;;;;;;4983261;28;21156;-74
2022/02/11 10:51:22;;;;;;;1.60;1.30;;;7.80;98.20;;;;;;4981844;28;21283;-75
2022/02/11 10:53:50;;;;;;;1.60;1.10;;;7.80;98.20;;;;;;4996227;28;20468;-75
2022/02/11 10:56:17;;;;;;;1.60;1.20;;;7.90;98.20;;;;;;4975737;28;20482;-75
2022/02/11 10:58:56;;;;;;;1.63;1.30;;;8.00;98.20;;;;;;4986811;28;20545;-76
2022/02/11 11:01:23;;;;;;;1.60;1.20;;;8.00;98.00;;;;;;4973391;28;20491;-75
2022/02/11 11:03:50;;;;;;;1.60;1.20;;;8.00;98.20;;;;;;4989805;28;20472;-76
2022/02/11 11:06:19;;;;;;;2.37;2.17;;;8.00;97.70;;;;;;4983437;28;20478;-75
2022/02/11 11:08:48;;;;;;;1.60;1.10;;;8.00;96.50;;;;;;5000989;28;20594;-75
2022/02/11 11:11:21;;;;;;;1.70;1.20;;;8.00;97.50;;;;;;4982785;28;20480;-75
2022/02/11 11:13:50;;;;;;;1.60;1.23;;;8.10;98.00;;;;;;5001366;28;20465;-77
2022/02/11 11:16:18;;;;;;;1.60;1.30;;;8.20;96.40;;;;;;4975265;28;20489;-74
2022/02/11 11:18:46;;;;;;;1.60;1.33;;;8.00;94.30;;;;;;4987421;28;20457;-76
2022/02/11 11:21:13;;;;;;;1.60;1.20;;;7.70;92.30;;;;;;4981940;28;20555;-74
2022/02/11 11:23:53;;;;;;;1.60;1.30;;;7.70;93.70;;;;;;5001519;28;20477;-75
2022/02/11 11:26:21;;;;;;;1.60;1.20;;;7.50;94.00;;;;;;4977859;28;20485;-77
2022/02/11 11:28:49;;;;;;;1.60;1.30;;;7.30;94.20;;;;;;4983501;28;21037;-76
2022/02/11 11:31:23;;;;;;;1.60;1.30;;;7.20;95.20;;;;;;4970557;28;20485;-75
2022/02/11 11:33:50;;;;;;;1.60;1.20;;;7.20;95.50;;;;;;4983766;28;20475;-75
2022/02/11 11:36:19;;;;;;;1.60;1.50;;;7.30;95.00;;;;;;4982600;28;20508;-75
2022/02/11 11:38:56;;;;;;;1.60;1.30;;;7.50;95.20;;;;;;5000971;28;20489;-76
2022/02/11 11:41:26;;;;;;;1.60;1.20;;;7.80;95.10;;;;;;4983243;28;20487;-75
2022/02/11 11:43:54;;;;;;;1.60;1.23;;;8.00;94.40;;;;;;5000065;28;20557;-77
2022/02/11 11:46:46;;;;;;;1.60;1.20;;;8.30;94.80;;;;;;4978199;28;20487;-75
2022/02/11 11:49:14;;;;;;;1.60;1.30;;;8.30;92.90;;;;;;4988621;28;20973;-80
2022/02/11 11:52:03;;;;;;;1.60;1.30;;;8.20;94.40;;;;;;4985389;28;20488;-75
2022/02/11 11:54:31;;;;;;;1.60;1.30;;;8.00;92.50;;;;;;4989507;28;20493;-76
2022/02/11 11:57:02;;;;;;;1.60;1.23;;;8.00;90.50;;;;;;4978012;28;20489;-78
2022/02/11 11:59:32;;;;;;;1.60;1.30;;;8.10;90.50;;;;;;4982602;28;20503;-74
2022/02/11 12:02:02;;;;;;;1.60;1.30;;;8.20;90.50;;;;;;4971946;28;20485;-75
2022/02/11 12:04:30;;;;;;;1.60;1.30;;;8.40;90.80;;;;;;4988047;28;20476;-74
2022/02/11 12:06:58;;;;;;;1.70;1.40;;;8.50;90.40;;;;;;4971433;28;20589;-77
2022/02/11 12:09:26;;;;;;;1.60;1.30;;;8.60;89.60;;;;;;4987723;28;20580;-77
2022/02/11 12:11:54;;;;;;;1.60;1.20;;;8.70;88.30;;;;;;4972850;28;20481;-75
2022/02/11 12:14:22;;;;;;;1.60;1.30;;;8.70;84.60;;;;;;4979229;28;20849;-75
2022/02/11 12:16:49;;;;;;;1.60;1.30;;;8.60;86.00;;;;;;4972759;28;20904;-75
2022/02/11 12:19:16;;;;;;;1.60;1.20;;;8.60;87.00;;;;;;4988090;28;20469;-75
2022/02/11 12:21:43;;;;;;;1.60;1.23;;;8.60;85.70;;;;;;4985110;28;20524;-75
2022/02/11 12:29:48;;;;;;;1.60;1.20;;;9.10;87.10;;;;;;4981560;28;20576;-75
2022/02/11 12:32:16;;;;;;;1.60;1.20;;;9.20;86.80;;;;;;4977261;28;20938;-75
2022/02/11 12:34:48;;;;;;;1.60;1.20;;;9.30;85.60;;;;;;4988578;28;20485;-76
2022/02/11 12:37:15;;;;;;;1.60;1.10;;;9.40;84.40;;;;;;4985676;28;20819;-75
2022/02/11 12:39:42;;;;;;;1.60;1.20;;;9.30;84.20;;;;;;4990460;28;21003;-75
2022/02/11 12:42:08;;;;;;;1.60;1.20;;;9.40;84.60;;;;;;4978135;28;20485;-76
2022/02/11 12:44:35;;;;;;;1.60;1.10;;;9.50;84.40;;;;;;4974968;28;20486;-75
2022/02/11 12:47:04;;;;;;;1.60;1.20;;;9.60;85.30;;;;;;4969692;28;20488;-75
2022/02/11 12:49:33;;;;;;;1.60;1.10;;;9.90;84.80;;;;;;4982326;28;20473;-76
2022/02/11 12:52:01;;;;;;;1.60;1.10;;;9.90;84.20;;;;;;4968818;28;20584;-75
2022/02/11 12:54:29;;;;;;;1.60;1.20;;;9.80;82.60;;;;;;4985442;28;20473;-75
2022/02/11 12:57:04;;;;;;;1.60;1.20;;;9.60;82.60;;;;;;4977819;28;21089;-75
2022/02/11 12:59:31;;;;;;;1.70;1.30;;;9.40;83.50;;;;;;5013711;23;20882;-75
2022/02/11 13:01:58;;;;;;;1.60;1.20;;;9.10;83.20;;;;;;4992050;28;21152;-73
2022/02/11 13:04:26;;;;;;;1.60;1.20;;;9.00;84.30;;;;;;5011532;28;20456;-75
2022/02/11 13:06:53;;;;;;;1.60;1.10;;;8.90;86.20;;;;;;4996103;28;21030;-74
2022/02/11 13:09:22;;;;;;;1.60;1.27;;;8.80;86.30;;;;;;4997648;28;20516;-73
2022/02/11 13:11:55;;;;;;;1.60;1.10;;;8.80;81.50;;;;;;4988994;28;20498;-77
2022/02/11 13:14:22;;;;;;;1.60;1.30;;;8.60;82.10;;;;;;4997146;28;20468;-77
2022/02/11 13:16:49;;;;;;;1.60;1.10;;;8.60;81.00;;;;;;4985133;28;20499;-73
2022/02/11 13:19:20;;;;;;;1.60;1.20;;;8.40;82.20;;;;;;4998284;28;20485;-75
2022/02/11 13:21:48;;;;;;;1.60;1.20;;;8.40;80.80;;;;;;4984519;28;20511;-73
2022/02/11 13:24:15;;;;;;;1.60;1.30;;;8.40;81.40;;;;;;4995878;28;20467;-75
2022/02/11 13:26:42;;;;;;;1.60;1.10;;;8.40;81.40;;;;;;4986689;28;20491;-76
2022/02/11 13:29:13;;;;;;;1.60;1.10;;;8.60;82.00;;;;;;4988339;28;20503;-74
2022/02/11 13:31:47;;;;;;;1.57;1.13;;;8.70;82.90;;;;;;4993025;28;20481;-74
2022/02/11 13:34:22;;;;;;;1.60;1.20;;;8.70;81.20;;;;;;4993718;28;20466;-74
2022/02/11 13:36:50;;;;;;;1.60;1.20;;;8.70;81.60;;;;;;4978219;28;20602;-74
2022/02/11 13:39:30;;;;;;;1.60;1.20;;;8.70;81.00;;;;;;4988616;28;20484;-73
2022/02/11 13:41:58;;;;;;;1.60;1.20;;;8.80;82.60;;;;;;4980626;28;20571;-73
2022/02/11 13:44:25;;;;;;;1.60;1.10;;;8.80;81.20;;;;;;4993380;28;20808;-73
2022/02/11 13:46:54;;;;;;;1.60;1.10;;;8.80;81.50;;;;;;4984850;28;20496;-73
2022/02/11 13:49:22;;;;;;;1.60;1.20;;;8.80;81.40;;;;;;4984711;28;20524;-73
2022/02/11 13:54:58;;;;;;;1.60;1.20;;;8.80;81.00;;;;;;4983907;28;20583;-74
2022/02/11 13:57:26;;;;;;;1.60;1.30;;;8.80;82.30;;;;;;4985727;28;20475;-74
2022/02/11 13:59:53;;;;;;;1.60;1.30;;;8.90;82.40;;;;;;4984866;28;20845;-71
2022/02/11 14:02:21;;;;;;;1.60;1.20;;;9.00;82.80;;;;;;4981188;28;20873;-72
2022/02/11 14:05:01;;;;;;;1.60;1.20;;;9.10;82.40;;;;;;4985823;28;20855;-71
2022/02/11 14:07:29;;;;;;;1.60;1.20;;;9.20;83.30;;;;;;4986311;28;20517;-74
2022/02/11 14:09:56;;;;;;;1.60;1.30;;;9.30;81.00;;;;;;4984951;28;20465;-74
2022/02/11 14:12:31;;;;;;;1.60;1.20;;;9.40;80.60;;;;;;4987337;28;20493;-73
2022/02/11 14:15:05;;;;;;;1.60;1.33;;;9.50;79.30;;;;;;4985092;28;20476;-72
2022/02/11 14:17:34;;;;;;;1.60;1.20;;;9.50;81.00;;;;;;4989585;28;20495;-74
2022/02/11 14:20:02;;;;;;;1.60;1.20;;;9.50;80.60;;;;;;4983560;28;21058;-74
2022/02/11 14:22:30;;;;;;;1.60;1.20;;;9.50;80.60;;;;;;4974311;28;20477;-73
2022/02/11 14:24:58;;;;;;;1.60;1.20;;;9.40;79.10;;;;;;4986081;28;20880;-72
2022/02/11 14:27:25;;;;;;;1.60;1.10;;;9.40;79.50;;;;;;4988996;28;20627;-73
2022/02/11 14:29:52;;;;;;;1.60;1.20;;;9.50;80.00;;;;;;4985506;28;20953;-71
2022/02/11 14:32:19;;;;;;;1.60;1.20;;;9.50;80.20;;;;;;4967823;28;20876;-74
2022/02/11 14:34:46;;;;;;;1.57;1.10;;;9.30;79.30;;;;;;4980866;28;20581;-72
2022/02/11 14:37:13;;;;;;;1.60;1.10;;;9.20;79.70;;;;;;4972141;28;20495;-73
2022/02/11 14:39:43;;;;;;;1.60;1.10;;;9.10;80.10;;;;;;4981193;28;21091;-72
2022/02/11 14:42:10;;;;;;;1.60;1.27;;;9.00;79.50;;;;;;4976483;28;20807;-72
2022/02/11 14:44:37;;;;;;;1.60;1.10;;;8.90;80.50;;;;;;4987854;28;20974;-72
2022/02/11 14:47:08;;;;;;;1.60;1.10;;;8.80;81.00;;;;;;4968981;28;20982;-72
2022/02/11 14:49:37;;;;;;;1.60;1.20;;;8.70;81.00;;;;;;4979876;28;20493;-74
2022/02/11 14:52:06;;;;;;;1.60;1.30;;;8.60;81.50;;;;;;4981413;28;21015;-73
2022/02/11 14:54:35;;;;;;;1.60;1.10;;;8.60;81.30;;;;;;4984740;28;20507;-74
2022/02/11 14:57:04;;;;;;;1.60;1.30;;;8.50;82.10;;;;;;4970789;28;20568;-74
2022/02/11 14:59:31;;;;;;;1.60;1.20;;;8.40;82.40;;;;;;4980388;28;20501;-72
2022/02/11 15:01:58;;;;;;;1.60;1.30;;;8.30;82.40;;;;;;4978202;28;20504;-73
2022/02/11 15:04:25;;;;;;;1.60;1.30;;;8.30;83.80;;;;;;4986773;28;20967;-74
2022/02/11 15:06:52;;;;;;;1.57;1.20;;;8.20;83.60;;;;;;4984478;28;20540;-74
2022/02/11 15:09:22;;;;;;;1.60;1.30;;;8.10;82.90;;;;;;4983604;28;20493;-74
2022/02/11 15:11:49;;;;;;;1.60;1.30;;;8.00;81.90;;;;;;4976402;28;21313;-73
2022/02/11 15:14:21;;;;;;;1.60;1.20;;;7.80;81.20;;;;;;4986683;28;20543;-74
2022/02/11 15:16:49;;;;;;;1.60;1.30;;;7.80;82.30;;;;;;4983435;28;20492;-72
2022/02/11 15:19:16;;;;;;;1.60;1.20;;;7.70;83.30;;;;;;4990743;28;20525;-73
2022/02/11 15:21:44;;;;;;;1.60;1.20;;;7.60;82.50;;;;;;4977042;28;20479;-73
2022/02/11 15:24:11;;;;;;;1.60;1.20;;;7.60;82.80;;;;;;4988145;28;20464;-74
2022/02/11 15:26:38;;;;;;;1.60;1.30;;;7.40;82.60;;;;;;4981061;28;20529;-75
2022/02/11 15:29:05;;;;;;;1.60;1.20;;;7.40;82.40;;;;;;4991611;28;20523;-73
2022/02/11 15:31:36;;;;;;;1.60;1.20;;;7.30;81.60;;;;;;4978367;28;20542;-74
2022/02/11 15:34:05;;;;;;;1.60;1.50;;;7.20;82.80;;;;;;4993641;28;20469;-71
2022/02/11 15:36:32;;;;;;;1.60;1.30;;;7.20;83.40;;;;;;4977980;28;20907;-74
2022/02/11 15:39:03;;;;;;;1.60;1.20;;;7.10;83.60;;;;;;4993433;28;20600;-72
2022/02/11 15:41:30;;;;;;;1.60;1.20;;;7.10;84.10;;;;;;4979186;28;20774;-73
2022/02/11 15:43:56;;;;;;;1.60;1.37;;;7.10;84.60;;;;;;4993765;28;20588;-75
2022/02/11 15:46:24;;;;;;;1.60;1.30;;;7.10;83.90;;;;;;4975283;28;20481;-72
2022/02/11 15:48:53;;;;;;;1.60;1.20;;;7.10;84.10;;;;;;4987640;28;20997;-74
2022/02/11 15:51:20;;;;;;;1.60;1.20;;;7.10;84.40;;;;;;4975584;28;20511;-73
2022/02/11 15:53:47;;;;;;;1.60;1.20;;;7.10;84.90;;;;;;4988888;28;20555;-73
2022/02/11 15:56:14;;;;;;;1.60;1.30;;;7.10;83.80;;;;;;4975468;28;20475;-73
2022/02/11 15:58:42;;;;;;;1.57;1.20;;;7.10;84.40;;;;;;4992806;28;20489;-73
2022/02/11 16:01:09;;;;;;;1.60;1.27;;;7.10;84.60;;;;;;4974438;28;20515;-73
2022/02/11 16:03:36;;;;;;;1.60;1.47;;;7.10;85.40;;;;;;4990073;28;20477;-73
2022/02/11 16:06:05;;;;;;;1.60;1.20;;;7.10;85.10;;;;;;4975766;28;20563;-73
2022/02/11 16:08:32;;;;;;;1.60;1.30;;;7.10;85.00;;;;;;4991399;28;20489;-72
2022/02/11 16:10:59;;;;;;;1.60;1.30;;;7.10;84.90;;;;;;4969701;28;20461;-73
2022/02/11 16:13:26;;;;;;;1.53;1.20;;;7.10;84.30;;;;;;4979810;28;20837;-72
2022/02/11 16:15:54;;;;;;;2.23;2.03;;;7.10;85.20;;;;;;4973782;28;20478;-74
2022/02/11 16:18:23;;;;;;;2.13;1.93;;;7.00;84.50;;;;;;4986369;28;21005;-75
2022/02/11 16:20:52;;;;;;;1.60;1.37;;;7.00;84.80;;;;;;4973546;28;20579;-74
2022/02/11 16:23:24;;;;;;;1.60;1.30;;;7.00;84.80;;;;;;4995028;28;20465;-72
2022/02/11 16:25:54;;;;;;;1.60;1.23;;;6.90;84.70;;;;;;4973647;28;20469;-73
2022/02/11 16:28:21;;;;;;;1.57;1.20;;;6.90;84.60;;;;;;4994954;28;20507;-76
2022/02/11 16:30:49;;;;;;;1.60;1.30;;;6.80;85.80;;;;;;4973880;28;20465;-74